createdAt,value
2018-09-20T00:02:00.000Z,99254
2018-09-20T00:07:00.000Z,99254
2018-09-20T00:12:00.000Z,99251
2018-09-20T00:17:00.000Z,99254
2018-09-20T00:22:00.000Z,99240
2018-09-20T00:27:00.000Z,99241
2018-09-20T00:32:00.000Z,99246
2018-09-20T00:37:00.000Z,99243
2018-09-20T00:42:00.000Z,99251
2018-09-20T00:47:00.000Z,99247
2018-09-20T00:52:00.000Z,99243
2018-09-20T00:57:00.000Z,99240
2018-09-20T01:02:00.000Z,99246
2018-09-20T01:07:00.000Z,99247
2018-09-20T01:12:00.000Z,99251
2018-09-20T01:17:00.000Z,99237
2018-09-20T01:22:00.000Z,99240
2018-09-20T01:27:00.000Z,99235
2018-09-20T01:32:00.000Z,99238
2018-09-20T01:37:00.000Z,99238
2018-09-20T01:42:00.000Z,99239
2018-09-20T01:47:00.000Z,99242
2018-09-20T01:52:00.000Z,99241
2018-09-20T01:57:00.000Z,99255
2018-09-20T02:02:00.000Z,99252
2018-09-20T02:07:00.000Z,99261
2018-09-20T02:12:00.000Z,99266
2018-09-20T02:17:00.000Z,99249
2018-09-20T02:22:00.000Z,99248
2018-09-20T02:27:00.000Z,99262
2018-09-20T02:32:00.000Z,99267
2018-09-20T02:37:00.000Z,99259
2018-09-20T02:42:00.000Z,99256
2018-09-20T02:47:00.000Z,99258
2018-09-20T02:52:00.000Z,99250
2018-09-20T02:57:00.000Z,99250
2018-09-20T03:02:00.000Z,99253
2018-09-20T03:07:00.000Z,99245
2018-09-20T03:12:00.000Z,99248
2018-09-20T03:17:00.000Z,99253
2018-09-20T03:22:00.000Z,99261
2018-09-20T03:27:00.000Z,99257
2018-09-20T03:32:00.000Z,99255
2018-09-20T03:37:00.000Z,99253
2018-09-20T03:42:00.000Z,99261
2018-09-20T03:47:00.000Z,99260
2018-09-20T03:52:00.000Z,99261
2018-09-20T03:57:00.000Z,99262
2018-09-20T04:02:00.000Z,99262
2018-09-20T04:07:00.000Z,99260
2018-09-20T04:12:00.000Z,99262
2018-09-20T04:17:00.000Z,99256
2018-09-20T04:22:00.000Z,99267
2018-09-20T04:27:00.000Z,99275
2018-09-20T04:32:00.000Z,99275
2018-09-20T04:37:00.000Z,99282
2018-09-20T04:42:00.000Z,99275
2018-09-20T04:47:00.000Z,99286
2018-09-20T04:52:00.000Z,99288
2018-09-20T04:57:00.000Z,99288
2018-09-20T05:02:00.000Z,99299
2018-09-20T05:07:00.000Z,99290
2018-09-20T05:13:00.000Z,99287
2018-09-20T05:18:00.000Z,99291
2018-09-20T05:23:00.000Z,99298
2018-09-20T05:28:00.000Z,99292
2018-09-20T05:33:00.000Z,99285
2018-09-20T05:38:00.000Z,99291
2018-09-20T05:43:00.000Z,99296
2018-09-20T05:48:00.000Z,99297
2018-09-20T05:53:00.000Z,99295
2018-09-20T05:58:00.000Z,99302
2018-09-20T06:03:00.000Z,99296
2018-09-20T06:08:00.000Z,99296
2018-09-20T06:13:00.000Z,99297
2018-09-20T06:18:00.000Z,99303
2018-09-20T06:23:00.000Z,99304
2018-09-20T06:28:00.000Z,99302
2018-09-20T06:33:00.000Z,99315
2018-09-20T06:38:00.000Z,99307
2018-09-20T06:43:00.000Z,99313
2018-09-20T06:48:00.000Z,99319
2018-09-20T06:53:00.000Z,99316
2018-09-20T06:58:00.000Z,99319
2018-09-20T07:03:00.000Z,99318
2018-09-20T07:08:00.000Z,99325
2018-09-20T07:13:00.000Z,99317
2018-09-20T07:18:00.000Z,99326
2018-09-20T07:23:00.000Z,99324
2018-09-20T07:28:00.000Z,99323
2018-09-20T07:33:00.000Z,99320
2018-09-20T07:38:00.000Z,99323
2018-09-20T07:43:00.000Z,99333
2018-09-20T07:48:00.000Z,99338
2018-09-20T07:53:00.000Z,99341
2018-09-20T07:58:00.000Z,99345
2018-09-20T08:03:00.000Z,99344
2018-09-20T08:08:00.000Z,99348
2018-09-20T08:13:00.000Z,99352
2018-09-20T08:18:00.000Z,99357
2018-09-20T08:23:00.000Z,99347
2018-09-20T08:28:00.000Z,99348
2018-09-20T08:33:00.000Z,99351
2018-09-20T08:38:00.000Z,99360
2018-09-20T08:43:00.000Z,99360
2018-09-20T08:48:00.000Z,99356
2018-09-20T08:53:00.000Z,99355
2018-09-20T08:58:00.000Z,99354
2018-09-20T09:03:00.000Z,99347
2018-09-20T09:08:00.000Z,99351
2018-09-20T09:13:00.000Z,99353
2018-09-20T09:18:00.000Z,99341
2018-09-20T09:23:00.000Z,99345
2018-09-20T09:28:00.000Z,99337
2018-09-20T09:33:00.000Z,99335
2018-09-20T09:38:00.000Z,99330
2018-09-20T09:43:00.000Z,99330
2018-09-20T09:48:00.000Z,99331
2018-09-20T09:53:00.000Z,99317
2018-09-20T09:58:00.000Z,99309
2018-09-20T10:03:00.000Z,99308
2018-09-20T10:08:00.000Z,99306
2018-09-20T10:13:00.000Z,99299
2018-09-20T10:18:00.000Z,99288
2018-09-20T10:23:00.000Z,99279
2018-09-20T10:28:00.000Z,99276
2018-09-20T10:33:00.000Z,99266
2018-09-20T10:38:00.000Z,99264
2018-09-20T10:43:00.000Z,99274
2018-09-20T10:48:00.000Z,99266
2018-09-20T10:53:00.000Z,99263
2018-09-20T10:58:00.000Z,99260
2018-09-20T11:03:00.000Z,99250
2018-09-20T11:09:00.000Z,99251
2018-09-20T11:14:00.000Z,99244
2018-09-20T11:19:00.000Z,99241
2018-09-20T11:24:00.000Z,99234
2018-09-20T11:29:00.000Z,99228
2018-09-20T11:34:00.000Z,99222
2018-09-20T11:39:00.000Z,99221
2018-09-20T11:44:00.000Z,99213
2018-09-20T11:49:00.000Z,99205
2018-09-20T11:54:00.000Z,99203
2018-09-20T11:59:00.000Z,99202
2018-09-20T12:04:00.000Z,99199
2018-09-20T12:09:00.000Z,99193
2018-09-20T12:14:00.000Z,99187
2018-09-20T12:19:00.000Z,99179
2018-09-20T12:24:00.000Z,99186
2018-09-20T12:29:00.000Z,99179
2018-09-20T12:34:00.000Z,99181
2018-09-20T12:39:00.000Z,99170
2018-09-20T12:44:00.000Z,99168
2018-09-20T12:49:00.000Z,99166
2018-09-20T12:54:00.000Z,99158
2018-09-20T12:59:00.000Z,99150
2018-09-20T13:04:00.000Z,99156
2018-09-20T13:09:00.000Z,99145
2018-09-20T13:14:00.000Z,99144
2018-09-20T13:19:00.000Z,99143
2018-09-20T13:24:00.000Z,99137
2018-09-20T13:29:00.000Z,99135
2018-09-20T13:34:00.000Z,99136
2018-09-20T13:39:00.000Z,99129
2018-09-20T13:44:00.000Z,99134
2018-09-20T13:49:00.000Z,99118
2018-09-20T13:54:00.000Z,99124
2018-09-20T13:59:00.000Z,99113
2018-09-20T14:04:00.000Z,99109
2018-09-20T14:09:00.000Z,99104
2018-09-20T14:14:00.000Z,99100
2018-09-20T14:19:00.000Z,99099
2018-09-20T14:24:00.000Z,99099
2018-09-20T14:29:00.000Z,99095
2018-09-20T14:34:00.000Z,99088
2018-09-20T14:39:00.000Z,99084
2018-09-20T14:44:00.000Z,99083
2018-09-20T14:49:00.000Z,99088
2018-09-20T14:54:00.000Z,99075
2018-09-20T14:59:00.000Z,99075
2018-09-20T15:04:00.000Z,99072
2018-09-20T15:09:00.000Z,99069
2018-09-20T15:14:00.000Z,99071
2018-09-20T15:19:00.000Z,99070
2018-09-20T15:24:00.000Z,99068
2018-09-20T15:29:00.000Z,99065
2018-09-20T15:34:00.000Z,99066
2018-09-20T15:39:00.000Z,99061
2018-09-20T15:44:00.000Z,99067
2018-09-20T15:49:00.000Z,99070
2018-09-20T15:54:00.000Z,99065
2018-09-20T15:59:00.000Z,99059
2018-09-20T16:04:00.000Z,99065
2018-09-20T16:09:00.000Z,99058
2018-09-20T16:14:00.000Z,99055
2018-09-20T16:19:00.000Z,99051
2018-09-20T16:24:00.000Z,99054
2018-09-20T16:30:00.000Z,99051
2018-09-20T16:35:00.000Z,99048
2018-09-20T16:40:00.000Z,99048
2018-09-20T16:45:00.000Z,99046
2018-09-20T16:50:00.000Z,99045
2018-09-20T16:55:00.000Z,99034
2018-09-20T17:00:00.000Z,99035
2018-09-20T17:05:00.000Z,99045
2018-09-20T17:10:00.000Z,99035
2018-09-20T17:15:00.000Z,99035
2018-09-20T17:20:00.000Z,99039
2018-09-20T17:25:00.000Z,99047
2018-09-20T17:30:00.000Z,99034
2018-09-20T17:35:00.000Z,99044
2018-09-20T17:40:00.000Z,99047
2018-09-20T17:45:00.000Z,99049
2018-09-20T17:50:00.000Z,99053
2018-09-20T17:55:00.000Z,99049
2018-09-20T18:00:00.000Z,99057
2018-09-20T18:05:00.000Z,99057
2018-09-20T18:10:00.000Z,99056
2018-09-20T18:15:00.000Z,99060
2018-09-20T18:20:00.000Z,99058
2018-09-20T18:25:00.000Z,99060
2018-09-20T18:30:00.000Z,99063
2018-09-20T18:35:00.000Z,99056
2018-09-20T18:40:00.000Z,99061
2018-09-20T18:45:00.000Z,99059
2018-09-20T18:50:00.000Z,99066
2018-09-20T18:55:00.000Z,99066
2018-09-20T19:00:00.000Z,99065
2018-09-20T19:05:00.000Z,99061
2018-09-20T19:10:00.000Z,99058
2018-09-20T19:15:00.000Z,99054
2018-09-20T19:20:00.000Z,99060
2018-09-20T19:25:00.000Z,99040
2018-09-20T19:30:00.000Z,99039
2018-09-20T19:35:00.000Z,99050
2018-09-20T19:40:00.000Z,99047
2018-09-20T19:45:00.000Z,99043
2018-09-20T19:50:00.000Z,99043
2018-09-20T19:55:00.000Z,99042
2018-09-20T20:00:00.000Z,99050
2018-09-20T20:05:00.000Z,99042
2018-09-20T20:10:00.000Z,99044
2018-09-20T20:15:00.000Z,99039
2018-09-20T20:20:00.000Z,99031
2018-09-20T20:25:00.000Z,99030
2018-09-20T20:30:00.000Z,99037
2018-09-20T20:35:00.000Z,99032
2018-09-20T20:40:00.000Z,99039
2018-09-20T20:45:00.000Z,99032
2018-09-20T20:50:00.000Z,99030
2018-09-20T20:55:00.000Z,99026
2018-09-20T21:00:00.000Z,99026
2018-09-20T21:05:00.000Z,99030
2018-09-20T21:10:00.000Z,99021
2018-09-20T21:15:00.000Z,99028
2018-09-20T21:20:00.000Z,99025
2018-09-20T21:25:00.000Z,99022
2018-09-20T21:30:00.000Z,99004
2018-09-20T21:35:00.000Z,99008
2018-09-20T21:40:00.000Z,99002
2018-09-20T21:45:00.000Z,98996
2018-09-20T21:50:00.000Z,99002
2018-09-20T21:55:00.000Z,98996
2018-09-20T22:00:00.000Z,98990
2018-09-20T22:05:00.000Z,98990
2018-09-20T22:10:00.000Z,98984
2018-09-20T22:15:00.000Z,98975
2018-09-20T22:21:00.000Z,98970
2018-09-20T22:26:00.000Z,98962
2018-09-20T22:31:00.000Z,98958
2018-09-20T22:36:00.000Z,98963
2018-09-20T22:41:00.000Z,98961
2018-09-20T22:46:00.000Z,98956
2018-09-20T22:51:00.000Z,98951
2018-09-20T22:56:00.000Z,98952
2018-09-20T23:01:00.000Z,98956
2018-09-20T23:06:00.000Z,98946
2018-09-20T23:11:00.000Z,98950
2018-09-20T23:16:00.000Z,98948
2018-09-20T23:21:00.000Z,98945
2018-09-20T23:26:00.000Z,98947
2018-09-20T23:31:00.000Z,98939
2018-09-20T23:36:00.000Z,98936
2018-09-20T23:41:00.000Z,98926
2018-09-20T23:46:00.000Z,98926
2018-09-20T23:51:00.000Z,98924
2018-09-20T23:56:00.000Z,98919
